createdAt,value
2016-10-15T00:00:08.506Z,934.8
2016-10-15T00:01:21.919Z,934.83
2016-10-15T00:02:34.791Z,934.82
2016-10-15T00:03:47.899Z,934.84
2016-10-15T00:05:00.893Z,934.84
2016-10-15T00:06:14.356Z,934.8
2016-10-15T00:07:27.325Z,934.82
2016-10-15T00:08:40.842Z,934.79
2016-10-15T00:09:53.255Z,934.8
2016-10-15T00:11:05.303Z,934.81
2016-10-15T00:12:18.837Z,934.8
2016-10-15T00:13:31.295Z,934.82
2016-10-15T00:14:43.284Z,934.85
2016-10-15T00:15:56.279Z,934.85
2016-10-15T00:17:09.241Z,934.82
2016-10-15T00:18:21.725Z,934.84
2016-10-15T00:19:35.258Z,934.79
2016-10-15T00:20:48.373Z,934.81
2016-10-15T00:22:01.369Z,934.77
2016-10-15T00:23:14.842Z,934.75
2016-10-15T00:24:28.292Z,934.78
2016-10-15T00:25:41.375Z,934.75
2016-10-15T00:26:54.315Z,934.81
2016-10-15T00:28:07.301Z,934.8
2016-10-15T00:29:20.535Z,934.8
2016-10-15T00:30:32.915Z,934.79
2016-10-15T00:31:46.349Z,934.86
2016-10-15T00:32:59.248Z,934.82
2016-10-15T00:34:11.109Z,934.84
2016-10-15T00:35:22.998Z,934.83
2016-10-15T00:36:36.065Z,934.84
2016-10-15T00:37:49.498Z,934.83
2016-10-15T00:39:02.517Z,934.85
2016-10-15T00:40:14.932Z,934.84
2016-10-15T00:41:28.380Z,934.87
2016-10-15T00:42:41.084Z,934.85
2016-10-15T00:43:54.002Z,934.88
2016-10-15T00:45:06.427Z,934.85
2016-10-15T00:46:20.111Z,934.9
2016-10-15T00:47:32.713Z,934.9
2016-10-15T00:48:45.722Z,934.87
2016-10-15T00:49:59.218Z,934.85
2016-10-15T00:51:12.698Z,934.83
2016-10-15T00:52:25.626Z,934.78
2016-10-15T00:53:38.752Z,934.78
2016-10-15T00:54:50.175Z,934.77
2016-10-15T00:56:03.106Z,934.78
2016-10-15T00:57:16.627Z,934.67
2016-10-15T00:58:29.684Z,934.7
2016-10-15T00:59:42.148Z,934.69
2016-10-15T01:00:55.081Z,934.63
2016-10-15T01:02:07.524Z,934.63
2016-10-15T01:03:20.545Z,934.61
2016-10-15T01:04:33.041Z,934.57
2016-10-15T01:05:46.489Z,934.55
2016-10-15T01:06:57.856Z,934.53
2016-10-15T01:08:10.334Z,934.46
2016-10-15T01:09:22.390Z,934.48
2016-10-15T01:10:35.304Z,934.47
2016-10-15T01:11:47.704Z,934.47
2016-10-15T01:13:00.634Z,934.42
2016-10-15T01:14:13.601Z,934.43
2016-10-15T01:15:26.541Z,934.44
2016-10-15T01:16:38.997Z,934.43
2016-10-15T01:17:51.410Z,934.46
2016-10-15T01:19:04.890Z,934.49
2016-10-15T01:20:18.453Z,934.46
2016-10-15T01:21:31.450Z,934.46
2016-10-15T01:22:44.390Z,934.48
2016-10-15T01:23:56.794Z,934.45
2016-10-15T01:25:09.782Z,934.47
2016-10-15T01:26:22.679Z,934.45
2016-10-15T01:27:36.153Z,934.45
2016-10-15T01:28:49.114Z,934.45
2016-10-15T01:30:02.065Z,934.45
2016-10-15T01:31:15.148Z,934.47
2016-10-15T01:32:28.177Z,934.52
2016-10-15T01:33:41.106Z,934.5
2016-10-15T01:34:54.653Z,934.56
2016-10-15T01:36:07.605Z,934.56
2016-10-15T01:37:20.409Z,934.53
2016-10-15T01:38:33.896Z,934.56
2016-10-15T01:39:47.408Z,934.56
2016-10-15T01:41:00.345Z,934.54
2016-10-15T01:42:13.997Z,934.55
2016-10-15T01:43:27.477Z,934.54
2016-10-15T01:44:40.937Z,934.48
2016-10-15T01:45:53.399Z,934.44
2016-10-15T01:47:06.854Z,934.44
2016-10-15T01:48:20.446Z,934.4
2016-10-15T01:49:33.941Z,934.42
2016-10-15T01:50:46.365Z,934.45
2016-10-15T01:51:59.842Z,934.46
2016-10-15T01:53:13.487Z,934.47
2016-10-15T01:54:26.385Z,934.48
2016-10-15T01:55:38.852Z,934.5
2016-10-15T01:56:52.335Z,934.47
2016-10-15T01:58:05.775Z,934.5
2016-10-15T01:59:18.296Z,934.5
2016-10-15T02:00:31.776Z,934.56
2016-10-15T02:01:44.210Z,934.55
2016-10-15T02:02:57.176Z,934.58
2016-10-15T02:04:10.258Z,934.6
2016-10-15T02:05:23.760Z,934.61
2016-10-15T02:06:37.287Z,934.58
2016-10-15T02:07:50.758Z,934.65
2016-10-15T02:09:03.766Z,934.62
2016-10-15T02:10:16.222Z,934.6
2016-10-15T02:11:29.629Z,934.6
2016-10-15T02:12:41.473Z,934.63
2016-10-15T02:13:54.354Z,934.65
2016-10-15T02:15:07.974Z,934.61
2016-10-15T02:16:21.451Z,934.62
2016-10-15T02:17:34.360Z,934.59
2016-10-15T02:18:47.408Z,934.57
2016-10-15T02:19:59.885Z,934.55
2016-10-15T02:21:13.430Z,934.55
2016-10-15T02:22:26.888Z,934.5
2016-10-15T02:23:40.411Z,934.46
2016-10-15T02:24:53.368Z,934.46
2016-10-15T02:26:05.863Z,934.45
2016-10-15T02:27:17.856Z,934.39
2016-10-15T02:28:31.330Z,934.39
2016-10-15T02:29:44.268Z,934.35
2016-10-15T02:30:57.791Z,934.28
2016-10-15T02:32:10.891Z,934.24
2016-10-15T02:33:23.892Z,934.24
2016-10-15T02:34:37.405Z,934.19
2016-10-15T02:35:50.381Z,934.18
2016-10-15T02:37:03.416Z,934.13
2016-10-15T02:38:16.885Z,934.15
2016-10-15T02:39:30.373Z,934.12
2016-10-15T02:40:43.866Z,934.12
2016-10-15T02:41:56.750Z,934.15
2016-10-15T02:43:09.673Z,934.1
2016-10-15T02:44:22.158Z,934.09
2016-10-15T02:45:34.600Z,934.07
2016-10-15T02:46:48.121Z,934.08
2016-10-15T02:48:01.703Z,934.05
2016-10-15T02:49:15.160Z,934.05
2016-10-15T02:50:28.867Z,934.04
2016-10-15T02:51:41.361Z,934.02
2016-10-15T02:52:54.352Z,934.03
2016-10-15T02:54:07.006Z,934.01
2016-10-15T02:55:19.463Z,933.99
2016-10-15T02:56:32.413Z,934
2016-10-15T02:57:45.913Z,933.97
2016-10-15T02:58:59.457Z,933.97
2016-10-15T03:00:11.305Z,933.97
2016-10-15T03:01:24.833Z,933.97
2016-10-15T03:02:37.765Z,933.97
2016-10-15T03:03:51.283Z,933.94
2016-10-15T03:05:04.311Z,933.95
2016-10-15T03:06:17.258Z,933.96
2016-10-15T03:07:30.234Z,933.93
2016-10-15T03:08:42.580Z,934
2016-10-15T03:09:55.711Z,934.01
2016-10-15T03:11:08.643Z,934.04
2016-10-15T03:12:22.092Z,934.05
2016-10-15T03:13:34.991Z,934.08
2016-10-15T03:14:48.192Z,934.07
2016-10-15T03:16:02.675Z,934.07
2016-10-15T03:17:15.644Z,934.07
2016-10-15T03:18:29.185Z,934.06
2016-10-15T03:19:42.665Z,934.06
2016-10-15T03:20:54.654Z,934.07
2016-10-15T03:22:07.115Z,934.08
2016-10-15T03:23:20.585Z,934.08
2016-10-15T03:24:33.544Z,934.08
2016-10-15T03:25:47.007Z,934.04
2016-10-15T03:27:00.074Z,934.04
2016-10-15T03:28:12.484Z,934.04
2016-10-15T03:29:24.602Z,934.02
2016-10-15T03:30:38.049Z,934.02
2016-10-15T03:31:51.116Z,934.03
2016-10-15T03:33:04.105Z,933.99
2016-10-15T03:34:17.100Z,933.94
2016-10-15T03:35:29.560Z,933.91
2016-10-15T03:36:43.044Z,933.85
2016-10-15T03:37:56.122Z,933.81
2016-10-15T03:39:09.089Z,933.83
2016-10-15T03:40:22.033Z,933.83
2016-10-15T03:41:35.564Z,933.88
2016-10-15T03:42:48.083Z,933.89
2016-10-15T03:44:01.047Z,933.85
2016-10-15T03:45:14.007Z,933.93
2016-10-15T03:46:26.992Z,933.9
2016-10-15T03:47:39.932Z,933.88
2016-10-15T03:48:53.120Z,933.88
2016-10-15T03:50:06.120Z,933.83
2016-10-15T03:51:19.069Z,933.84
2016-10-15T03:52:32.040Z,933.81
2016-10-15T03:53:45.669Z,933.79
2016-10-15T03:54:58.072Z,933.73
2016-10-15T03:56:11.592Z,933.72
2016-10-15T03:57:25.110Z,933.68
2016-10-15T03:58:36.995Z,933.65
2016-10-15T03:59:49.920Z,933.65
2016-10-15T04:01:03.409Z,933.65
2016-10-15T04:02:16.304Z,933.6
2016-10-15T04:03:29.253Z,933.63
2016-10-15T04:04:42.826Z,933.64
2016-10-15T04:05:56.353Z,933.62
2016-10-15T04:07:08.214Z,933.58
2016-10-15T04:08:21.682Z,933.6
2016-10-15T04:09:35.116Z,933.55
2016-10-15T04:10:47.595Z,933.49
2016-10-15T04:11:59.992Z,933.44
2016-10-15T04:13:13.016Z,933.46
2016-10-15T04:14:26.511Z,933.41
2016-10-15T04:15:40.204Z,933.43
2016-10-15T04:16:52.660Z,933.4
2016-10-15T04:18:06.153Z,933.35
2016-10-15T04:19:19.600Z,933.34
2016-10-15T04:20:33.097Z,933.35
2016-10-15T04:21:46.016Z,933.33
2016-10-15T04:22:59.491Z,933.34
2016-10-15T04:24:12.955Z,933.31
2016-10-15T04:25:26.431Z,933.3
2016-10-15T04:26:39.451Z,933.37
2016-10-15T04:27:52.936Z,933.3
2016-10-15T04:29:05.334Z,933.3
2016-10-15T04:30:18.847Z,933.29
2016-10-15T04:31:32.339Z,933.28
2016-10-15T04:32:44.234Z,933.28
2016-10-15T04:33:56.681Z,933.28
2016-10-15T04:35:09.674Z,933.26
2016-10-15T04:36:22.054Z,933.25
2016-10-15T04:37:35.699Z,933.26
2016-10-15T04:38:48.094Z,933.28
2016-10-15T04:40:01.057Z,933.27
2016-10-15T04:41:13.433Z,933.29
2016-10-15T04:42:26.404Z,933.28
2016-10-15T04:43:39.446Z,933.32
2016-10-15T04:44:52.403Z,933.32
2016-10-15T04:46:05.342Z,933.33
2016-10-15T04:47:17.795Z,933.3
2016-10-15T04:48:30.390Z,933.3
2016-10-15T04:49:43.792Z,933.26
2016-10-15T04:50:56.787Z,933.21
2016-10-15T04:52:08.888Z,933.15
2016-10-15T04:53:22.412Z,933.12
2016-10-15T04:54:35.353Z,933.1
2016-10-15T04:55:48.334Z,933.1
2016-10-15T04:57:00.286Z,933.14
2016-10-15T04:58:13.786Z,933.13
2016-10-15T04:59:26.327Z,933.13
2016-10-15T05:00:39.237Z,933.11
2016-10-15T05:01:52.178Z,933.14
2016-10-15T05:03:05.208Z,933.14
2016-10-15T05:04:18.650Z,933.09
2016-10-15T05:05:32.175Z,933.09
2016-10-15T05:06:45.170Z,933.07
2016-10-15T05:07:57.599Z,933.09
2016-10-15T05:09:11.077Z,933.1
2016-10-15T05:10:24.608Z,933.08
2016-10-15T05:11:38.152Z,933.1
2016-10-15T05:12:51.164Z,933.11
2016-10-15T05:14:03.574Z,933.11
2016-10-15T05:15:15.468Z,933.12
2016-10-15T05:16:28.442Z,933.13
2016-10-15T05:17:40.977Z,933.14
2016-10-15T05:18:53.441Z,933.14
2016-10-15T05:20:07.092Z,933.14
2016-10-15T05:21:19.590Z,933.15
2016-10-15T05:22:32.549Z,933.11
2016-10-15T05:23:45.462Z,933.13
2016-10-15T05:24:58.903Z,933.14
2016-10-15T05:26:11.833Z,933.14
2016-10-15T05:27:24.316Z,933.14
2016-10-15T05:28:37.787Z,933.11
2016-10-15T05:29:50.196Z,933.14
2016-10-15T05:31:03.124Z,933.15
2016-10-15T05:32:16.172Z,933.15
2016-10-15T05:33:29.153Z,933.18
2016-10-15T05:34:42.280Z,933.13
2016-10-15T05:35:55.501Z,933.18
2016-10-15T05:37:08.453Z,933.15
2016-10-15T05:38:22.066Z,933.17
2016-10-15T05:39:35.622Z,933.1
2016-10-15T05:40:48.106Z,933.08
2016-10-15T05:42:01.100Z,933.11
2016-10-15T05:43:14.702Z,933.07
2016-10-15T05:44:26.713Z,933.07
2016-10-15T05:45:40.249Z,933.02
2016-10-15T05:46:52.726Z,933
2016-10-15T05:48:05.170Z,932.99
2016-10-15T05:49:17.581Z,932.94
2016-10-15T05:50:30.529Z,932.93
2016-10-15T05:51:43.972Z,932.96
2016-10-15T05:52:57.415Z,932.95
2016-10-15T05:54:10.540Z,932.9
2016-10-15T05:55:23.990Z,932.92
2016-10-15T05:56:36.436Z,932.89
2016-10-15T05:57:49.869Z,932.85
2016-10-15T05:59:02.814Z,932.87
2016-10-15T06:00:15.223Z,932.86
2016-10-15T06:01:28.167Z,932.87
2016-10-15T06:02:41.663Z,932.86
2016-10-15T06:03:54.703Z,932.91
2016-10-15T06:05:08.346Z,932.88
2016-10-15T06:06:20.793Z,932.89
2016-10-15T06:07:33.687Z,932.93
2016-10-15T06:08:46.158Z,932.91
2016-10-15T06:09:59.730Z,932.94
2016-10-15T06:11:17.450Z,932.95
2016-10-15T06:12:30.990Z,932.96
2016-10-15T06:13:44.054Z,932.94
2016-10-15T06:14:56.547Z,932.94
2016-10-15T06:16:08.957Z,932.89
2016-10-15T06:17:21.381Z,932.9
2016-10-15T06:18:33.063Z,932.88
2016-10-15T06:19:46.552Z,932.91
2016-10-15T06:20:58.734Z,932.97
2016-10-15T06:22:11.931Z,932.95
2016-10-15T06:23:24.873Z,932.98
2016-10-15T06:24:37.827Z,932.99
2016-10-15T06:25:51.377Z,932.99
2016-10-15T06:27:03.400Z,933.05
2016-10-15T06:28:16.904Z,933.04
2016-10-15T06:29:29.401Z,933.04
2016-10-15T06:30:42.901Z,932.98
2016-10-15T06:31:56.399Z,932.97
2016-10-15T06:33:08.785Z,932.96
2016-10-15T06:34:21.442Z,932.91
2016-10-15T06:35:33.890Z,932.95
2016-10-15T06:36:46.805Z,932.97
2016-10-15T06:37:59.342Z,933.01
2016-10-15T06:39:12.287Z,933.06
2016-10-15T06:40:24.752Z,933.07
2016-10-15T06:41:37.697Z,933.06
2016-10-15T06:42:50.833Z,933.05
2016-10-15T06:44:06.393Z,933.07
2016-10-15T06:45:18.852Z,933.07
2016-10-15T06:46:32.415Z,933.08
2016-10-15T06:47:44.844Z,933.15
2016-10-15T06:48:57.906Z,933.18
2016-10-15T06:50:09.761Z,933.18
2016-10-15T06:51:22.218Z,933.21
2016-10-15T06:52:35.727Z,933.2
2016-10-15T06:53:49.368Z,933.21
2016-10-15T06:55:02.855Z,933.26
2016-10-15T06:56:15.758Z,933.25
2016-10-15T06:57:29.307Z,933.25
2016-10-15T06:58:41.797Z,933.26
2016-10-15T06:59:55.398Z,933.3
2016-10-15T07:01:12.343Z,933.3
2016-10-15T07:02:24.803Z,933.31
2016-10-15T07:03:37.262Z,933.26
2016-10-15T07:04:50.355Z,933.32
2016-10-15T07:06:02.817Z,933.29
2016-10-15T07:07:15.734Z,933.24
2016-10-15T07:08:29.439Z,933.23
2016-10-15T07:09:42.537Z,933.27
2016-10-15T07:10:55.514Z,933.29
2016-10-15T07:12:08.008Z,933.3
2016-10-15T07:13:20.966Z,933.37
2016-10-15T07:14:33.381Z,933.33
2016-10-15T07:15:46.507Z,933.32
2016-10-15T07:16:58.945Z,933.32
2016-10-15T07:18:12.442Z,933.32
2016-10-15T07:19:25.944Z,933.32
2016-10-15T07:20:39.487Z,933.33
2016-10-15T07:21:51.381Z,933.33
2016-10-15T07:23:04.076Z,933.37
2016-10-15T07:24:17.559Z,933.31
2016-10-15T07:25:30.974Z,933.36
2016-10-15T07:26:42.387Z,933.34
2016-10-15T07:27:55.426Z,933.37
2016-10-15T07:29:07.877Z,933.4
2016-10-15T07:30:20.797Z,933.39
2016-10-15T07:31:33.842Z,933.42
2016-10-15T07:32:47.287Z,933.42
2016-10-15T07:34:00.853Z,933.42
2016-10-15T07:35:13.812Z,933.44
2016-10-15T07:36:27.265Z,933.4
2016-10-15T07:37:40.836Z,933.38
2016-10-15T07:38:53.733Z,933.4
2016-10-15T07:40:06.223Z,933.39
2016-10-15T07:41:18.128Z,933.41
2016-10-15T07:42:30.774Z,933.41
2016-10-15T07:43:43.175Z,933.4
2016-10-15T07:44:56.700Z,933.45
2016-10-15T07:46:09.676Z,933.45
2016-10-15T07:47:23.130Z,933.48
2016-10-15T07:48:36.718Z,933.51
2016-10-15T07:49:50.215Z,933.59
2016-10-15T07:51:03.129Z,933.57
2016-10-15T07:52:16.646Z,933.66
2016-10-15T07:53:28.210Z,933.61
2016-10-15T07:54:40.638Z,933.61
2016-10-15T07:55:53.080Z,933.62
2016-10-15T07:57:06.558Z,933.63
2016-10-15T07:58:20.018Z,933.67
2016-10-15T07:59:32.462Z,933.68
2016-10-15T08:00:45.394Z,933.73
2016-10-15T08:01:58.841Z,933.74
2016-10-15T08:03:12.307Z,933.74
2016-10-15T08:04:25.395Z,933.71
2016-10-15T08:05:38.371Z,933.75
2016-10-15T08:06:51.348Z,933.74
2016-10-15T08:08:04.924Z,933.71
2016-10-15T08:09:17.946Z,933.74
2016-10-15T08:10:30.469Z,933.72
2016-10-15T08:11:43.456Z,933.71
2016-10-15T08:12:57.056Z,933.7
2016-10-15T08:14:10.540Z,933.7
2016-10-15T08:15:24.074Z,933.69
2016-10-15T08:16:37.672Z,933.69
2016-10-15T08:17:51.165Z,933.73
2016-10-15T08:19:04.170Z,933.71
2016-10-15T08:20:17.706Z,933.7
2016-10-15T08:21:30.707Z,933.71
2016-10-15T08:22:43.692Z,933.71
2016-10-15T08:23:57.107Z,933.69
2016-10-15T08:25:09.985Z,933.69
2016-10-15T08:26:23.577Z,933.66
2016-10-15T08:27:36.029Z,933.66
2016-10-15T08:28:49.484Z,933.64
2016-10-15T08:30:01.904Z,933.63
2016-10-15T08:31:13.824Z,933.6
2016-10-15T08:32:26.343Z,933.56
2016-10-15T08:33:39.332Z,933.53
2016-10-15T08:34:51.247Z,933.54
2016-10-15T08:36:04.185Z,933.53
2016-10-15T08:37:17.315Z,933.51
2016-10-15T08:38:29.192Z,933.51
2016-10-15T08:39:41.123Z,933.46
2016-10-15T08:40:54.086Z,933.43
2016-10-15T08:42:07.619Z,933.39
2016-10-15T08:43:21.107Z,933.41
2016-10-15T08:44:33.577Z,933.41
2016-10-15T08:45:46.562Z,933.42
2016-10-15T08:46:59.521Z,933.45
2016-10-15T08:48:12.539Z,933.43
2016-10-15T08:49:26.098Z,933.47
2016-10-15T08:50:39.137Z,933.54
2016-10-15T08:51:52.606Z,933.54
2016-10-15T08:53:06.174Z,933.58
2016-10-15T08:54:19.144Z,933.57
2016-10-15T08:55:32.119Z,933.56
2016-10-15T08:56:44.537Z,933.56
2016-10-15T08:57:58.032Z,933.54
2016-10-15T08:59:11.165Z,933.49
2016-10-15T09:00:23.121Z,933.54
2016-10-15T09:01:36.090Z,933.54
2016-10-15T09:02:49.009Z,933.53
2016-10-15T09:04:01.477Z,933.58
2016-10-15T09:05:14.961Z,933.6
2016-10-15T09:06:28.428Z,933.62
2016-10-15T09:07:42.007Z,933.63
2016-10-15T09:08:55.506Z,933.65
2016-10-15T09:10:09.189Z,933.67
2016-10-15T09:11:22.137Z,933.72
2016-10-15T09:12:35.132Z,933.72
2016-10-15T09:13:48.091Z,933.76
2016-10-15T09:15:00.016Z,933.74
2016-10-15T09:16:12.570Z,933.74
2016-10-15T09:17:25.580Z,933.8
2016-10-15T09:18:37.013Z,933.82
2016-10-15T09:19:50.479Z,933.89
2016-10-15T09:21:04.128Z,933.97
2016-10-15T09:22:17.600Z,934
2016-10-15T09:23:30.995Z,934.07
2016-10-15T09:24:43.900Z,934.03
2016-10-15T09:25:56.919Z,934.03
2016-10-15T09:27:10.020Z,934
2016-10-15T09:28:22.459Z,933.99
2016-10-15T09:29:35.924Z,934.03
2016-10-15T09:30:48.373Z,934.06
2016-10-15T09:32:01.946Z,934.05
2016-10-15T09:33:13.807Z,934.11
2016-10-15T09:34:26.733Z,934.11
2016-10-15T09:35:39.187Z,934.14
2016-10-15T09:36:52.657Z,934.11
2016-10-15T09:38:04.755Z,934.14
2016-10-15T09:39:17.783Z,934.15
2016-10-15T09:40:30.730Z,934.16
2016-10-15T09:41:44.198Z,934.18
2016-10-15T09:42:57.341Z,934.16
2016-10-15T09:44:10.841Z,934.16
2016-10-15T09:45:23.781Z,934.1
2016-10-15T09:46:37.307Z,934.09
2016-10-15T09:47:50.404Z,934.11
2016-10-15T09:49:03.890Z,934.11
2016-10-15T09:50:16.357Z,934.13
2016-10-15T09:51:29.898Z,934.1
2016-10-15T09:52:42.860Z,934.02
2016-10-15T09:53:55.518Z,934.01
2016-10-15T09:55:07.449Z,933.98
2016-10-15T09:56:20.452Z,933.96
2016-10-15T09:57:33.911Z,933.96
2016-10-15T09:58:46.926Z,933.99
2016-10-15T09:59:59.340Z,934.05
2016-10-15T10:01:12.279Z,934.1
2016-10-15T10:02:25.297Z,934.15
2016-10-15T10:03:38.259Z,934.2
2016-10-15T10:04:51.887Z,934.21
2016-10-15T10:06:04.853Z,934.19
2016-10-15T10:07:17.805Z,934.21
2016-10-15T10:08:31.263Z,934.21
2016-10-15T10:09:43.748Z,934.25
2016-10-15T10:10:57.379Z,934.25
2016-10-15T10:12:10.932Z,934.26
2016-10-15T10:13:22.849Z,934.28
2016-10-15T10:14:36.335Z,934.3
2016-10-15T10:15:48.862Z,934.28
2016-10-15T10:17:00.743Z,934.27
2016-10-15T10:18:13.198Z,934.31
2016-10-15T10:19:26.191Z,934.29
2016-10-15T10:20:39.120Z,934.29
2016-10-15T10:21:52.609Z,934.21
2016-10-15T10:23:06.107Z,934.16
2016-10-15T10:24:18.580Z,934.18
2016-10-15T10:25:32.044Z,934.16
2016-10-15T10:26:44.719Z,934.21
2016-10-15T10:27:57.669Z,934.16
2016-10-15T10:29:11.175Z,934.13
2016-10-15T10:30:24.156Z,934.14
2016-10-15T10:31:37.088Z,934.14
2016-10-15T10:32:50.130Z,934.14
2016-10-15T10:34:03.628Z,934.12
2016-10-15T10:35:16.602Z,934.15
2016-10-15T10:36:29.560Z,934.18
2016-10-15T10:37:42.630Z,934.17
2016-10-15T10:38:56.080Z,934.18
2016-10-15T10:40:09.028Z,934.19
2016-10-15T10:41:21.942Z,934.17
2016-10-15T10:42:35.481Z,934.17
2016-10-15T10:43:48.599Z,934.2
2016-10-15T10:45:01.583Z,934.24
2016-10-15T10:46:14.476Z,934.21
2016-10-15T10:47:27.396Z,934.19
2016-10-15T10:48:40.498Z,934.22
2016-10-15T10:49:54.139Z,934.22
2016-10-15T10:51:07.637Z,934.23
2016-10-15T10:52:20.721Z,934.21
2016-10-15T10:53:33.714Z,934.25
2016-10-15T10:54:47.218Z,934.23
2016-10-15T10:55:59.850Z,934.25
2016-10-15T10:57:13.265Z,934.3
2016-10-15T10:58:26.248Z,934.31
2016-10-15T10:59:38.800Z,934.37
2016-10-15T11:00:51.823Z,934.33
2016-10-15T11:02:05.303Z,934.32
2016-10-15T11:03:18.292Z,934.32
2016-10-15T11:04:30.759Z,934.3
2016-10-15T11:05:43.872Z,934.31
2016-10-15T11:06:57.410Z,934.31
2016-10-15T11:08:10.434Z,934.37
2016-10-15T11:09:23.948Z,934.37
2016-10-15T11:10:37.525Z,934.3
2016-10-15T11:11:50.423Z,934.27
2016-10-15T11:13:03.940Z,934.26
2016-10-15T11:14:16.311Z,934.24
2016-10-15T11:15:29.839Z,934.22
2016-10-15T11:16:42.888Z,934.24
2016-10-15T11:17:56.464Z,934.21
2016-10-15T11:19:09.424Z,934.26
2016-10-15T11:20:22.348Z,934.21
2016-10-15T11:21:35.392Z,934.24
2016-10-15T11:22:48.898Z,934.22
2016-10-15T11:24:02.458Z,934.24
2016-10-15T11:25:15.514Z,934.25
2016-10-15T11:26:28.996Z,934.22
2016-10-15T11:27:41.963Z,934.2
2016-10-15T11:28:55.500Z,934.21
2016-10-15T11:30:07.914Z,934.21
2016-10-15T11:31:20.079Z,934.22
2016-10-15T11:32:33.673Z,934.2
2016-10-15T11:33:45.109Z,934.23
2016-10-15T11:34:58.543Z,934.26
2016-10-15T11:36:11.485Z,934.3
2016-10-15T11:37:24.439Z,934.32
2016-10-15T11:38:37.440Z,934.31
2016-10-15T11:39:50.674Z,934.27
2016-10-15T11:41:04.206Z,934.22
2016-10-15T11:42:17.680Z,934.17
2016-10-15T11:43:31.524Z,934.17
2016-10-15T11:44:44.480Z,934.23
2016-10-15T11:45:56.445Z,934.24
2016-10-15T11:47:09.394Z,934.28
2016-10-15T11:48:22.869Z,934.31
2016-10-15T11:49:35.816Z,934.3
2016-10-15T11:50:48.275Z,934.34
2016-10-15T11:52:00.164Z,934.29
2016-10-15T11:53:12.573Z,934.3
2016-10-15T11:54:25.740Z,934.28
2016-10-15T11:55:38.194Z,934.27
2016-10-15T11:56:51.154Z,934.24
2016-10-15T11:58:04.109Z,934.22
2016-10-15T11:59:17.100Z,934.16
2016-10-15T12:00:29.544Z,934.19
2016-10-15T12:01:41.991Z,934.19
2016-10-15T12:02:54.465Z,934.17
2016-10-15T12:04:06.883Z,934.1
2016-10-15T12:05:19.955Z,934.12
2016-10-15T12:06:33.441Z,934.16
2016-10-15T12:07:46.863Z,934.21
2016-10-15T12:09:00.409Z,934.23
2016-10-15T12:10:13.399Z,934.25
2016-10-15T12:11:25.355Z,934.27
2016-10-15T12:12:37.821Z,934.25
2016-10-15T12:13:50.763Z,934.13
2016-10-15T12:15:03.688Z,934.19
2016-10-15T12:16:17.281Z,934.14
2016-10-15T12:17:29.736Z,934.21
2016-10-15T12:18:42.597Z,934.25
2016-10-15T12:19:55.648Z,934.21
2016-10-15T12:21:08.653Z,934.21
2016-10-15T12:22:21.652Z,934.25
2016-10-15T12:23:34.585Z,934.25
2016-10-15T12:24:47.002Z,934.27
2016-10-15T12:26:00.487Z,934.29
2016-10-15T12:27:13.568Z,934.29
2016-10-15T12:28:26.527Z,934.31
2016-10-15T12:29:39.612Z,934.3
2016-10-15T12:30:52.605Z,934.32
2016-10-15T12:32:06.108Z,934.26
2016-10-15T12:33:19.722Z,934.28
2016-10-15T12:34:33.227Z,934.33
2016-10-15T12:35:46.177Z,934.41
2016-10-15T12:36:59.306Z,934.45
2016-10-15T12:38:12.871Z,934.45
2016-10-15T12:39:25.831Z,934.44
2016-10-15T12:40:38.259Z,934.33
2016-10-15T12:41:51.222Z,934.33
2016-10-15T12:43:03.594Z,934.31
2016-10-15T12:44:17.159Z,934.29
2016-10-15T12:45:30.655Z,934.3
2016-10-15T12:46:44.168Z,934.27
2016-10-15T12:47:57.639Z,934.42
2016-10-15T12:49:11.277Z,934.43
2016-10-15T12:50:24.294Z,934.41
2016-10-15T12:51:37.279Z,934.39
2016-10-15T12:52:49.180Z,934.39
2016-10-15T12:54:02.540Z,934.35
2016-10-15T12:55:15.529Z,934.39
2016-10-15T12:56:28.452Z,934.35
2016-10-15T12:57:41.980Z,934.35
2016-10-15T12:58:54.897Z,934.4
2016-10-15T13:00:06.905Z,934.43
2016-10-15T13:01:19.847Z,934.38
2016-10-15T13:02:32.822Z,934.36
2016-10-15T13:03:45.252Z,934.35
2016-10-15T13:04:58.224Z,934.29
2016-10-15T13:06:11.325Z,934.23
2016-10-15T13:07:24.835Z,934.21
2016-10-15T13:08:37.809Z,934.24
2016-10-15T13:09:50.796Z,934.22
2016-10-15T13:11:04.424Z,934.15
2016-10-15T13:12:16.887Z,934.12
2016-10-15T13:13:29.826Z,934.16
2016-10-15T13:14:42.307Z,934.17
2016-10-15T13:15:55.922Z,934.15
2016-10-15T13:17:09.587Z,934.13
2016-10-15T13:18:22.012Z,933.99
2016-10-15T13:19:34.991Z,934.03
2016-10-15T13:20:47.431Z,933.95
2016-10-15T13:21:59.965Z,933.99
2016-10-15T13:23:13.565Z,933.95
2016-10-15T13:24:26.011Z,933.96
2016-10-15T13:25:39.461Z,933.9
2016-10-15T13:26:51.535Z,933.89
2016-10-15T13:28:05.160Z,933.87
2016-10-15T13:29:18.848Z,933.84
2016-10-15T13:30:31.913Z,933.89
2016-10-15T13:31:45.355Z,933.81
2016-10-15T13:32:58.913Z,933.81
2016-10-15T13:34:11.350Z,933.72
2016-10-15T13:35:24.866Z,933.76
2016-10-15T13:36:37.864Z,933.8
2016-10-15T13:37:51.365Z,933.75
2016-10-15T13:39:04.267Z,933.77
2016-10-15T13:40:17.159Z,933.73
2016-10-15T13:41:30.106Z,933.75
2016-10-15T13:42:43.673Z,933.72
2016-10-15T13:43:57.374Z,933.78
2016-10-15T13:45:10.344Z,933.7
2016-10-15T13:46:23.818Z,933.76
2016-10-15T13:47:36.358Z,933.73
2016-10-15T13:48:49.333Z,933.76
2016-10-15T13:50:02.772Z,933.74
2016-10-15T13:51:16.287Z,933.79
2016-10-15T13:52:29.217Z,933.76
2016-10-15T13:53:42.145Z,933.75
2016-10-15T13:54:55.240Z,933.74
2016-10-15T13:56:07.675Z,933.71
2016-10-15T13:57:21.205Z,933.74
2016-10-15T13:58:34.692Z,933.71
2016-10-15T13:59:47.634Z,933.67
2016-10-15T14:01:00.519Z,933.67
2016-10-15T14:02:14.047Z,933.66
2016-10-15T14:03:27.117Z,933.63
2016-10-15T14:04:40.047Z,933.59
2016-10-15T14:05:53.053Z,933.61
2016-10-15T14:07:06.018Z,933.61
2016-10-15T14:08:18.911Z,933.64
2016-10-15T14:09:32.078Z,933.59
2016-10-15T14:10:45.178Z,933.56
2016-10-15T14:11:58.236Z,933.57
2016-10-15T14:13:11.814Z,933.58
2016-10-15T14:14:24.355Z,933.52
2016-10-15T14:15:37.338Z,933.5
2016-10-15T14:16:50.914Z,933.5
2016-10-15T14:18:04.424Z,933.42
2016-10-15T14:19:17.350Z,933.37
2016-10-15T14:20:30.292Z,933.43
2016-10-15T14:21:43.716Z,933.39
2016-10-15T14:22:56.662Z,933.37
2016-10-15T14:24:09.567Z,933.42
2016-10-15T14:25:22.973Z,933.4
2016-10-15T14:26:35.942Z,933.37
2016-10-15T14:27:48.500Z,933.35
2016-10-15T14:29:01.535Z,933.33
2016-10-15T14:30:13.938Z,933.25
2016-10-15T14:31:26.860Z,933.27
2016-10-15T14:32:39.781Z,933.26
2016-10-15T14:33:53.260Z,933.27
2016-10-15T14:35:06.284Z,933.29
2016-10-15T14:36:19.157Z,933.17
2016-10-15T14:37:31.075Z,933.26
2016-10-15T14:38:44.102Z,933.24
2016-10-15T14:39:56.612Z,933.18
2016-10-15T14:41:09.512Z,933.18
2016-10-15T14:42:21.875Z,933.02
2016-10-15T14:43:35.288Z,932.97
2016-10-15T14:44:48.845Z,933.14
2016-10-15T14:46:02.238Z,933.17
2016-10-15T14:47:14.625Z,933.1
2016-10-15T14:48:26.572Z,933.21
2016-10-15T14:49:40.312Z,933.1
2016-10-15T14:50:53.718Z,933.03
2016-10-15T14:52:07.199Z,933.08
2016-10-15T14:53:20.574Z,933.03
2016-10-15T14:54:33.121Z,933.1
2016-10-15T14:55:45.098Z,933.06
2016-10-15T14:56:58.555Z,932.96
2016-10-15T14:58:09.925Z,932.99
2016-10-15T14:59:22.323Z,932.95
2016-10-15T15:00:35.865Z,932.95
2016-10-15T15:01:49.361Z,932.95
2016-10-15T15:03:01.714Z,932.92
2016-10-15T15:04:14.101Z,932.92
2016-10-15T15:05:25.960Z,932.91
2016-10-15T15:06:38.334Z,932.87
2016-10-15T15:07:51.273Z,932.8
2016-10-15T15:09:04.228Z,932.78
2016-10-15T15:10:17.123Z,932.83
2016-10-15T15:11:29.648Z,932.79
2016-10-15T15:12:43.100Z,932.77
2016-10-15T15:13:56.578Z,932.76